John C. Munro Hamilton International Airport
CYHM : now visible

Airfield :











YOU CAN JOIN US ON...

 
LOGIN :

Register | Disclaimer

   EN    FR    IT 

 









Legend :    VFR   Marginal VFR   IFR   Intensive IFR   Very Intensive IFR
Visi :
Ceiling :
>= 8 km
>= 3000ft
5 to 8 km
1000 to 3000 ft
1500m to 5 km
500 to 1000 ft
800 to 1500m
200 to 500 ft
< 800m
< 200 ft
Symbols :   Thunderstorms  Fog  Heavy snow  Heavy precipitations  Wind > 20 kt







- Airport Elevation : 780 ft
- IATA code : YHM


CYHM - John C. Munro Hamilton International

CURRENT METAR :
  • 202000Z 22008KT 15SM FEW044 SCT210 SCT250 26/15 A3015 RMK CU1CC3CI1 CU TR SLP211 DENSITY ALT 2000FT

EXPIRED METARs :
  • 201900Z 20008KT 160V220 15SM FEW042 BKN210 26/15 A3016 RMK CU1CC6 CU TR SLP213 DENSITY ALT 2000FT
  • 201800Z 19005KT 15SM SCT210 BKN250 25/15 A3018 RMK CC4CI2 SLP219 DENSITY ALT 1900FT

TAF TAF CYHM
Valid from the 20 at 18:00 until the 21 at 18:00 UTC


201738Z 2018/2118 20008KT P6SM FEW050 SCT240
FM210300 VRB03KT P6SM SCT180
FM210900 VRB03KT P6SM FEW050
PROB30 2109/2112 3SM BR
BECMG 2114/2116 20010KT RMK NXT FCST BY 210000Z
No reported NOTAMs for that airfield.



MET'MAP, your aeronautical weather chart ! - Copyright ORBIFLY December 2007 - Disclaimer

ORBIFLY MET'MAP TEAM :

Programming & Development : Alexandra Zaïnal
Concept & Development : Baudouin d'Aumeries
Co-Development & Prog : Marc-Olivier Méhu
Technical & hardware support : Manuel Goepfert

Contact : metmap@orbifly.com




SOURCES & CREDITS :

   NOAA       Earth
Advisory